sensor_id;sensor_type;location;lat;lon;timestamp;pressure;altitude;pressure_sealevel;temperature;humidity
7105;BME280;3594;42.152;24.714;2024-03-25T00:02:00;60453.47;;;10.74;nan
7105;BME280;3594;42.152;24.714;2024-03-25T00:04:26;60573.00;;;10.69;nan
7105;BME280;3594;42.152;24.714;2024-03-25T00:06:52;60508.91;;;10.66;nan
7105;BME280;3594;42.152;24.714;2024-03-25T00:09:18;60603.97;;;10.67;nan
7105;BME280;3594;42.152;24.714;2024-03-25T00:11:45;60631.63;;;10.78;nan
7105;BME280;3594;42.152;24.714;2024-03-25T00:14:11;60632.63;;;10.88;nan
7105;BME280;3594;42.152;24.714;2024-03-25T00:16:36;60769.13;;;10.68;nan
7105;BME280;3594;42.152;24.714;2024-03-25T00:19:02;60581.28;;;10.64;nan
7105;BME280;3594;42.152;24.714;2024-03-25T00:21:28;60739.91;;;10.67;nan
7105;BME280;3594;42.152;24.714;2024-03-25T00:23:54;60490.84;;;10.80;nan
7105;BME280;3594;42.152;24.714;2024-03-25T00:26:23;60599.41;;;10.88;nan
7105;BME280;3594;42.152;24.714;2024-03-25T00:28:48;60624.41;;;10.67;nan
7105;BME280;3594;42.152;24.714;2024-03-25T00:31:13;60605.72;;;10.63;nan
7105;BME280;3594;42.152;24.714;2024-03-25T00:33:39;60619.41;;;10.57;nan
7105;BME280;3594;42.152;24.714;2024-03-25T00:36:05;60654.03;;;10.82;nan
7105;BME280;3594;42.152;24.714;2024-03-25T00:38:30;60633.84;;;10.59;nan
7105;BME280;3594;42.152;24.714;2024-03-25T00:40:56;60500.91;;;10.52;nan
7105;BME280;3594;42.152;24.714;2024-03-25T00:43:23;60533.41;;;10.60;nan
7105;BME280;3594;42.152;24.714;2024-03-25T00:45:48;60721.25;;;10.59;nan
7105;BME280;3594;42.152;24.714;2024-03-25T00:48:14;60480.97;;;10.57;nan
7105;BME280;3594;42.152;24.714;2024-03-25T00:50:40;60445.22;;;10.57;nan
7105;BME280;3594;42.152;24.714;2024-03-25T00:53:05;60640.66;;;10.60;nan
7105;BME280;3594;42.152;24.714;2024-03-25T00:55:33;60607.63;;;10.47;nan
7105;BME280;3594;42.152;24.714;2024-03-25T00:57:58;60704.63;;;10.26;nan
7105;BME280;3594;42.152;24.714;2024-03-25T01:00:24;60536.78;;;10.22;nan
7105;BME280;3594;42.152;24.714;2024-03-25T01:02:50;60505.34;;;10.40;nan
7105;BME280;3594;42.152;24.714;2024-03-25T01:05:15;60612.50;;;10.44;nan
7105;BME280;3594;42.152;24.714;2024-03-25T01:07:40;60561.31;;;10.53;nan
7105;BME280;3594;42.152;24.714;2024-03-25T01:10:06;60563.53;;;10.55;nan
7105;BME280;3594;42.152;24.714;2024-03-25T01:12:32;60546.31;;;10.31;nan
7105;BME280;3594;42.152;24.714;2024-03-25T01:14:57;60533.78;;;10.33;nan
7105;BME280;3594;42.152;24.714;2024-03-25T01:17:23;60417.66;;;10.41;nan
7105;BME280;3594;42.152;24.714;2024-03-25T01:19:48;60318.25;;;10.32;nan
7105;BME280;3594;42.152;24.714;2024-03-25T01:22:16;60228.72;;;10.30;nan
7105;BME280;3594;42.152;24.714;2024-03-25T01:24:42;60233.19;;;10.01;nan
7105;BME280;3594;42.152;24.714;2024-03-25T01:27:07;60263.19;;;10.22;nan
7105;BME280;3594;42.152;24.714;2024-03-25T01:29:32;60287.63;;;10.32;nan
7105;BME280;3594;42.152;24.714;2024-03-25T01:31:58;60156.22;;;10.24;nan
7105;BME280;3594;42.152;24.714;2024-03-25T01:34:25;60584.16;;;9.96;nan
7105;BME280;3594;42.152;24.714;2024-03-25T01:36:50;60531.56;;;9.64;nan
7105;BME280;3594;42.152;24.714;2024-03-25T01:39:16;60546.22;;;9.48;nan
7105;BME280;3594;42.152;24.714;2024-03-25T01:41:41;60431.25;;;9.24;nan
7105;BME280;3594;42.152;24.714;2024-03-25T01:44:07;60407.25;;;9.19;nan
7105;BME280;3594;42.152;24.714;2024-03-25T01:46:32;60240.78;;;8.83;nan
7105;BME280;3594;42.152;24.714;2024-03-25T01:48:58;60080.06;;;8.85;nan
7105;BME280;3594;42.152;24.714;2024-03-25T01:51:24;59781.91;;;8.48;nan
7105;BME280;3594;42.152;24.714;2024-03-25T01:53:52;58716.34;;;8.18;nan
7105;BME280;3594;42.152;24.714;2024-03-25T01:56:20;55522.03;;;7.83;nan
7105;BME280;3594;42.152;24.714;2024-03-25T01:58:47;48396.81;;;7.61;nan
7105;BME280;3594;42.152;24.714;2024-03-25T02:01:13;36772.44;;;7.51;nan
7105;BME280;3594;42.152;24.714;2024-03-25T02:03:41;26775.94;;;7.50;nan
7105;BME280;3594;42.152;24.714;2024-03-25T02:06:11;20021.56;;;7.51;nan
7105;BME280;3594;42.152;24.714;2024-03-25T02:08:38;15843.63;;;7.42;nan
7105;BME280;3594;42.152;24.714;2024-03-25T02:11:04;11022.69;;;7.03;nan
7105;BME280;3594;42.152;24.714;2024-03-25T02:13:30;8146.00;;;7.19;nan
7105;BME280;3594;42.152;24.714;2024-03-25T02:15:56;4622.38;;;6.89;nan
7105;BME280;3594;42.152;24.714;2024-03-25T02:18:21;1748.06;;;6.89;nan
7105;BME280;3594;42.152;24.714;2024-03-25T02:20:47;789.09;;;6.78;nan
7105;BME280;3594;42.152;24.714;2024-03-25T02:23:13;-2080.75;;;6.85;nan
7105;BME280;3594;42.152;24.714;2024-03-25T02:25:42;-4312.09;;;6.79;nan
7105;BME280;3594;42.152;24.714;2024-03-25T02:28:07;-5267.44;;;6.89;nan
7105;BME280;3594;42.152;24.714;2024-03-25T02:30:33;-5586.06;;;6.85;nan
7105;BME280;3594;42.152;24.714;2024-03-25T02:32:58;-7814.88;;;6.93;nan
7105;BME280;3594;42.152;24.714;2024-03-25T02:35:25;-9088.16;;;7.00;nan
7105;BME280;3594;42.152;24.714;2024-03-25T02:37:52;-8769.34;;;6.83;nan
7105;BME280;3594;42.152;24.714;2024-03-25T02:40:18;-5585.84;;;6.95;nan
7105;BME280;3594;42.152;24.714;2024-03-25T02:42:44;-3673.91;;;6.97;nan
7105;BME280;3594;42.152;24.714;2024-03-25T02:45:10;-4310.44;;;7.20;nan
7105;BME280;3594;42.152;24.714;2024-03-25T02:47:36;-4947.84;;;7.24;nan
7105;BME280;3594;42.152;24.714;2024-03-25T02:50:01;-5903.97;;;7.24;nan
7105;BME280;3594;42.152;24.714;2024-03-25T02:52:27;-6859.81;;;7.31;nan
7105;BME280;3594;42.152;24.714;2024-03-25T02:54:52;-5904.06;;;7.18;nan
7105;BME280;3594;42.152;24.714;2024-03-25T02:57:20;-5903.84;;;7.33;nan
7105;BME280;3594;42.152;24.714;2024-03-25T02:59:45;-5903.81;;;7.34;nan
7105;BME280;3594;42.152;24.714;2024-03-25T03:02:10;-5584.97;;;7.40;nan
7105;BME280;3594;42.152;24.714;2024-03-25T03:04:36;-4946.91;;;7.55;nan
7105;BME280;3594;42.152;24.714;2024-03-25T03:07:01;-4309.44;;;7.44;nan
7105;BME280;3594;42.152;24.714;2024-03-25T03:09:27;-3352.31;;;7.48;nan
7105;BME280;3594;42.152;24.714;2024-03-25T03:11:52;-3990.19;;;7.51;nan
7105;BME280;3594;42.152;24.714;2024-03-25T03:14:18;-6222.44;;;7.43;nan
7105;BME280;3594;42.152;24.714;2024-03-25T03:16:43;-7178.47;;;7.42;nan
7105;BME280;3594;42.152;24.714;2024-03-25T03:19:09;-7815.81;;;7.49;nan
7105;BME280;3594;42.152;24.714;2024-03-25T03:21:35;-8452.78;;;7.43;nan
7105;BME280;3594;42.152;24.714;2024-03-25T03:24:02;-8453.19;;;7.58;nan
7105;BME280;3594;42.152;24.714;2024-03-25T03:26:27;-7497.28;;;7.57;nan
7105;BME280;3594;42.152;24.714;2024-03-25T03:28:53;-7816.00;;;7.60;nan
7105;BME280;3594;42.152;24.714;2024-03-25T03:31:19;-6541.13;;;7.50;nan
7105;BME280;3594;42.152;24.714;2024-03-25T03:33:47;-7178.56;;;7.54;nan
7105;BME280;3594;42.152;24.714;2024-03-25T03:36:14;-4309.69;;;7.38;nan
7105;BME280;3594;42.152;24.714;2024-03-25T03:38:39;-3990.44;;;7.46;nan
7105;BME280;3594;42.152;24.714;2024-03-25T03:41:05;-3990.72;;;7.39;nan
7105;BME280;3594;42.152;24.714;2024-03-25T03:43:32;-4628.69;;;7.35;nan
7105;BME280;3594;42.152;24.714;2024-03-25T03:45:58;-4629.28;;;7.18;nan
7105;BME280;3594;42.152;24.714;2024-03-25T03:48:23;-4629.47;;;7.13;nan
7105;BME280;3594;42.152;24.714;2024-03-25T03:50:49;-3672.69;;;7.22;nan
7105;BME280;3594;42.152;24.714;2024-03-25T03:53:14;-1122.00;;;7.08;nan
7105;BME280;3594;42.152;24.714;2024-03-25T03:55:40;-482.22;;;7.24;nan
7105;BME280;3594;42.152;24.714;2024-03-25T03:58:05;2710.66;;;7.20;nan
7105;BME280;3594;42.152;24.714;2024-03-25T04:00:34;2390.22;;;7.14;nan
7105;BME280;3594;42.152;24.714;2024-03-25T04:03:00;2391.06;;;7.19;nan
7105;BME280;3594;42.152;24.714;2024-03-25T04:05:32;4624.91;;;7.03;nan
7105;BME280;3594;42.152;24.714;2024-03-25T04:07:57;6861.16;;;6.96;nan
7105;BME280;3594;42.152;24.714;2024-03-25T04:10:23;5903.78;;;7.04;nan
7105;BME280;3594;42.152;24.714;2024-03-25T04:12:49;6542.63;;;7.01;nan
7105;BME280;3594;42.152;24.714;2024-03-25T04:15:14;6860.81;;;6.94;nan
7105;BME280;3594;42.152;24.714;2024-03-25T04:17:43;8778.72;;;6.90;nan
7105;BME280;3594;42.152;24.714;2024-03-25T04:20:11;10062.09;;;7.02;nan
7105;BME280;3594;42.152;24.714;2024-03-25T04:22:36;10698.91;;;6.90;nan
7105;BME280;3594;42.152;24.714;2024-03-25T04:25:02;12299.81;;;6.90;nan
7105;BME280;3594;42.152;24.714;2024-03-25T04:27:28;11341.56;;;6.98;nan
7105;BME280;3594;42.152;24.714;2024-03-25T04:29:53;15180.28;;;6.82;nan
7105;BME280;3594;42.152;24.714;2024-03-25T04:32:18;18070.28;;;6.92;nan
7105;BME280;3594;42.152;24.714;2024-03-25T04:34:44;21283.84;;;7.00;nan
7105;BME280;3594;42.152;24.714;2024-03-25T04:37:09;17432.31;;;7.01;nan
7105;BME280;3594;42.152;24.714;2024-03-25T04:39:35;18714.75;;;6.99;nan
7105;BME280;3594;42.152;24.714;2024-03-25T04:42:00;19995.81;;;6.92;nan
7105;BME280;3594;42.152;24.714;2024-03-25T04:44:27;21282.69;;;6.98;nan
7105;BME280;3594;42.152;24.714;2024-03-25T04:46:53;24170.31;;;6.90;nan
7105;BME280;3594;42.152;24.714;2024-03-25T04:49:18;24816.34;;;6.96;nan
7105;BME280;3594;42.152;24.714;2024-03-25T04:51:44;29326.94;;;7.07;nan
7105;BME280;3594;42.152;24.714;2024-03-25T04:54:09;30616.72;;;7.09;nan
7105;BME280;3594;42.152;24.714;2024-03-25T04:56:35;34808.41;;;7.12;nan
7105;BME280;3594;42.152;24.714;2024-03-25T04:59:00;33523.50;;;7.19;nan
7105;BME280;3594;42.152;24.714;2024-03-25T05:01:27;37723.03;;;7.12;nan
7105;BME280;3594;42.152;24.714;2024-03-25T05:03:53;41022.06;;;7.17;nan
7105;BME280;3594;42.152;24.714;2024-03-25T05:06:19;43907.00;;;7.20;nan
7105;BME280;3594;42.152;24.714;2024-03-25T05:08:44;43147.41;;;7.09;nan
7105;BME280;3594;42.152;24.714;2024-03-25T05:11:09;45372.09;;;7.51;nan
7105;BME280;3594;42.152;24.714;2024-03-25T05:13:35;45756.59;;;7.51;nan
7105;BME280;3594;42.152;24.714;2024-03-25T05:16:01;46901.41;;;7.59;nan
7105;BME280;3594;42.152;24.714;2024-03-25T05:18:26;47030.66;;;7.70;nan
7105;BME280;3594;42.152;24.714;2024-03-25T05:20:52;49427.19;;;7.52;nan
7105;BME280;3594;42.152;24.714;2024-03-25T05:23:17;50921.47;;;7.76;nan
7105;BME280;3594;42.152;24.714;2024-03-25T05:25:42;50748.00;;;7.77;nan
7105;BME280;3594;42.152;24.714;2024-03-25T05:28:08;49345.22;;;7.89;nan
7105;BME280;3594;42.152;24.714;2024-03-25T05:30:33;49745.88;;;7.79;nan
7105;BME280;3594;42.152;24.714;2024-03-25T05:32:59;53121.72;;;7.75;nan
7105;BME280;3594;42.152;24.714;2024-03-25T05:35:25;52453.50;;;7.84;nan
7105;BME280;3594;42.152;24.714;2024-03-25T05:37:50;51687.63;;;7.97;nan
7105;BME280;3594;42.152;24.714;2024-03-25T05:40:16;48427.31;;;8.03;nan
7105;BME280;3594;42.152;24.714;2024-03-25T05:42:45;52482.16;;;8.11;nan
7105;BME280;3594;42.152;24.714;2024-03-25T05:45:12;49960.06;;;8.18;nan
7105;BME280;3594;42.152;24.714;2024-03-25T05:47:37;51381.81;;;8.30;nan
7105;BME280;3594;42.152;24.714;2024-03-25T05:50:03;50602.94;;;8.65;nan
7105;BME280;3594;42.152;24.714;2024-03-25T05:52:31;53923.84;;;8.70;nan
7105;BME280;3594;42.152;24.714;2024-03-25T05:54:56;55262.44;;;8.92;nan
7105;BME280;3594;42.152;24.714;2024-03-25T05:57:22;56423.75;;;9.10;nan
7105;BME280;3594;42.152;24.714;2024-03-25T05:59:47;57444.75;;;8.92;nan
7105;BME280;3594;42.152;24.714;2024-03-25T06:02:12;57674.41;;;9.04;nan
7105;BME280;3594;42.152;24.714;2024-03-25T06:04:38;57803.00;;;9.01;nan
7105;BME280;3594;42.152;24.714;2024-03-25T06:07:03;57553.47;;;8.88;nan
7105;BME280;3594;42.152;24.714;2024-03-25T06:09:29;57397.63;;;8.85;nan
7105;BME280;3594;42.152;24.714;2024-03-25T06:11:54;57787.25;;;8.83;nan
7105;BME280;3594;42.152;24.714;2024-03-25T06:14:19;58190.16;;;8.65;nan
7105;BME280;3594;42.152;24.714;2024-03-25T06:16:45;57975.66;;;8.60;nan
7105;BME280;3594;42.152;24.714;2024-03-25T06:19:10;57951.75;;;8.52;nan
7105;BME280;3594;42.152;24.714;2024-03-25T06:21:36;58033.50;;;8.33;nan
7105;BME280;3594;42.152;24.714;2024-03-25T06:24:01;58012.25;;;8.34;nan
7105;BME280;3594;42.152;24.714;2024-03-25T06:26:26;57499.75;;;8.07;nan
7105;BME280;3594;42.152;24.714;2024-03-25T06:28:52;57578.16;;;8.28;nan
7105;BME280;3594;42.152;24.714;2024-03-25T06:31:17;57527.06;;;8.23;nan
7105;BME280;3594;42.152;24.714;2024-03-25T06:34:01;57794.41;;;7.87;nan
7105;BME280;3594;42.152;24.714;2024-03-25T06:36:47;57440.78;;;7.96;nan
7105;BME280;3594;42.152;24.714;2024-03-25T06:39:16;57194.59;;;7.80;nan
7105;BME280;3594;42.152;24.714;2024-03-25T06:41:42;56983.91;;;8.04;nan
7105;BME280;3594;42.152;24.714;2024-03-25T06:44:07;57260.50;;;8.18;nan
7105;BME280;3594;42.152;24.714;2024-03-25T06:46:33;57139.63;;;8.10;nan
7105;BME280;3594;42.152;24.714;2024-03-25T06:48:58;56615.28;;;8.23;nan
7105;BME280;3594;42.152;24.714;2024-03-25T06:51:24;57195.63;;;8.22;nan
7105;BME280;3594;42.152;24.714;2024-03-25T06:53:49;57120.31;;;8.20;nan
7105;BME280;3594;42.152;24.714;2024-03-25T06:56:15;56684.59;;;8.02;nan
7105;BME280;3594;42.152;24.714;2024-03-25T06:58:41;57163.81;;;8.16;nan
7105;BME280;3594;42.152;24.714;2024-03-25T07:01:08;57422.34;;;8.22;nan
7105;BME280;3594;42.152;24.714;2024-03-25T07:03:34;57222.66;;;8.55;nan
7105;BME280;3594;42.152;24.714;2024-03-25T07:06:00;57551.47;;;8.79;nan
7105;BME280;3594;42.152;24.714;2024-03-25T07:08:26;57838.53;;;9.08;nan
7105;BME280;3594;42.152;24.714;2024-03-25T07:10:52;58610.38;;;9.08;nan
7105;BME280;3594;42.152;24.714;2024-03-25T07:13:18;58536.06;;;8.86;nan
7105;BME280;3594;42.152;24.714;2024-03-25T07:15:44;58609.63;;;9.12;nan
7105;BME280;3594;42.152;24.714;2024-03-25T07:18:10;58437.06;;;9.13;nan
7105;BME280;3594;42.152;24.714;2024-03-25T07:20:38;58419.50;;;9.32;nan
7105;BME280;3594;42.152;24.714;2024-03-25T07:23:03;58946.78;;;9.60;nan
7105;BME280;3594;42.152;24.714;2024-03-25T07:25:29;59104.06;;;9.71;nan
7105;BME280;3594;42.152;24.714;2024-03-25T07:27:55;59324.69;;;9.63;nan
7105;BME280;3594;42.152;24.714;2024-03-25T07:30:20;59296.91;;;9.73;nan
7105;BME280;3594;42.152;24.714;2024-03-25T07:32:47;59462.72;;;9.68;nan
7105;BME280;3594;42.152;24.714;2024-03-25T07:35:13;59570.25;;;9.62;nan
7105;BME280;3594;42.152;24.714;2024-03-25T07:37:43;59386.53;;;9.78;nan
7105;BME280;3594;42.152;24.714;2024-03-25T07:40:09;59669.34;;;10.06;nan
7105;BME280;3594;42.152;24.714;2024-03-25T07:42:37;59573.16;;;10.09;nan
7105;BME280;3594;42.152;24.714;2024-03-25T07:45:03;60061.66;;;10.45;nan
7105;BME280;3594;42.152;24.714;2024-03-25T07:47:30;60204.50;;;10.49;nan
7105;BME280;3594;42.152;24.714;2024-03-25T07:49:55;60331.28;;;10.51;nan
7105;BME280;3594;42.152;24.714;2024-03-25T07:52:21;60289.00;;;10.96;nan
7105;BME280;3594;42.152;24.714;2024-03-25T07:54:47;60339.22;;;10.97;nan
7105;BME280;3594;42.152;24.714;2024-03-25T07:57:12;60595.88;;;11.35;nan
7105;BME280;3594;42.152;24.714;2024-03-25T07:59:38;60597.88;;;11.35;nan
7105;BME280;3594;42.152;24.714;2024-03-25T08:02:04;60508.47;;;11.14;nan
7105;BME280;3594;42.152;24.714;2024-03-25T08:04:29;60574.22;;;11.23;nan
7105;BME280;3594;42.152;24.714;2024-03-25T08:06:55;60614.50;;;11.06;nan
7105;BME280;3594;42.152;24.714;2024-03-25T08:09:20;60582.31;;;11.32;nan
7105;BME280;3594;42.152;24.714;2024-03-25T08:11:45;60574.41;;;11.46;nan
7105;BME280;3594;42.152;24.714;2024-03-25T08:14:11;60609.47;;;11.38;nan
7105;BME280;3594;42.152;24.714;2024-03-25T08:16:37;60717.53;;;11.09;nan
7105;BME280;3594;42.152;24.714;2024-03-25T08:19:03;60583.84;;;10.85;nan
7105;BME280;3594;42.152;24.714;2024-03-25T08:21:28;60790.78;;;11.57;nan
7105;BME280;3594;42.152;24.714;2024-03-25T08:23:54;60809.72;;;11.67;nan
7105;BME280;3594;42.152;24.714;2024-03-25T08:26:19;60799.38;;;11.30;nan
7105;BME280;3594;42.152;24.714;2024-03-25T08:28:45;60792.84;;;11.51;nan
7105;BME280;3594;42.152;24.714;2024-03-25T08:31:10;60608.00;;;11.23;nan
7105;BME280;3594;42.152;24.714;2024-03-25T08:33:36;60917.66;;;11.46;nan
7105;BME280;3594;42.152;24.714;2024-03-25T08:36:01;60693.41;;;11.49;nan
7105;BME280;3594;42.152;24.714;2024-03-25T08:38:28;60630.41;;;11.43;nan
7105;BME280;3594;42.152;24.714;2024-03-25T08:40:53;60819.19;;;11.34;nan
7105;BME280;3594;42.152;24.714;2024-03-25T08:43:19;60751.91;;;11.51;nan
7105;BME280;3594;42.152;24.714;2024-03-25T08:45:44;60690.53;;;11.51;nan
7105;BME280;3594;42.152;24.714;2024-03-25T08:48:10;60706.72;;;11.75;nan
7105;BME280;3594;42.152;24.714;2024-03-25T08:50:36;60840.06;;;11.48;nan
7105;BME280;3594;42.152;24.714;2024-03-25T08:53:02;60622.22;;;10.81;nan
7105;BME280;3594;42.152;24.714;2024-03-25T08:55:28;60719.47;;;10.67;nan
7105;BME280;3594;42.152;24.714;2024-03-25T08:57:53;60632.31;;;10.69;nan
7105;BME280;3594;42.152;24.714;2024-03-25T09:00:20;60690.31;;;10.36;nan
7105;BME280;3594;42.152;24.714;2024-03-25T09:02:45;60690.97;;;10.28;nan
7105;BME280;3594;42.152;24.714;2024-03-25T09:05:11;60672.09;;;10.89;nan
7105;BME280;3594;42.152;24.714;2024-03-25T09:07:39;60783.69;;;11.11;nan
7105;BME280;3594;42.152;24.714;2024-03-25T09:10:04;60847.22;;;11.43;nan
7105;BME280;3594;42.152;24.714;2024-03-25T09:12:48;60808.34;;;11.38;nan
7105;BME280;3594;42.152;24.714;2024-03-25T09:15:14;60871.44;;;11.65;nan
7105;BME280;3594;42.152;24.714;2024-03-25T09:17:40;60877.22;;;11.81;nan
7105;BME280;3594;42.152;24.714;2024-03-25T09:20:06;60865.94;;;11.71;nan
7105;BME280;3594;42.152;24.714;2024-03-25T09:22:46;60744.22;;;11.77;nan
7105;BME280;3594;42.152;24.714;2024-03-25T09:25:12;60857.81;;;11.87;nan
7105;BME280;3594;42.152;24.714;2024-03-25T09:27:39;60912.56;;;12.22;nan
7105;BME280;3594;42.152;24.714;2024-03-25T09:30:05;60789.97;;;12.20;nan
7105;BME280;3594;42.152;24.714;2024-03-25T09:32:31;60762.63;;;12.23;nan
7105;BME280;3594;42.152;24.714;2024-03-25T09:34:59;60878.34;;;12.28;nan
7105;BME280;3594;42.152;24.714;2024-03-25T09:37:24;60920.06;;;12.15;nan
7105;BME280;3594;42.152;24.714;2024-03-25T09:39:50;60882.31;;;12.07;nan
7105;BME280;3594;42.152;24.714;2024-03-25T09:42:26;60821.44;;;12.49;nan
7105;BME280;3594;42.152;24.714;2024-03-25T09:44:54;60891.56;;;12.84;nan
7105;BME280;3594;42.152;24.714;2024-03-25T09:47:20;60949.78;;;12.51;nan
7105;BME280;3594;42.152;24.714;2024-03-25T09:49:46;61135.00;;;12.59;nan
7105;BME280;3594;42.152;24.714;2024-03-25T09:52:12;60937.75;;;12.33;nan
7105;BME280;3594;42.152;24.714;2024-03-25T09:54:38;60817.50;;;12.24;nan
7105;BME280;3594;42.152;24.714;2024-03-25T09:57:03;60919.53;;;12.56;nan
7105;BME280;3594;42.152;24.714;2024-03-25T09:59:30;60868.91;;;12.73;nan
7105;BME280;3594;42.152;24.714;2024-03-25T10:01:56;60856.72;;;12.90;nan
7105;BME280;3594;42.152;24.714;2024-03-25T10:04:23;60964.69;;;12.88;nan
7105;BME280;3594;42.152;24.714;2024-03-25T10:06:49;60889.84;;;13.24;nan
7105;BME280;3594;42.152;24.714;2024-03-25T10:09:19;60891.47;;;13.09;nan
7105;BME280;3594;42.152;24.714;2024-03-25T10:11:47;61038.13;;;12.94;nan
7105;BME280;3594;42.152;24.714;2024-03-25T10:14:13;60994.44;;;13.23;nan
7105;BME280;3594;42.152;24.714;2024-03-25T10:16:38;60994.53;;;12.94;nan
7105;BME280;3594;42.152;24.714;2024-03-25T10:19:03;61140.97;;;12.92;nan
7105;BME280;3594;42.152;24.714;2024-03-25T10:21:29;60965.63;;;12.81;nan
7105;BME280;3594;42.152;24.714;2024-03-25T10:23:56;60831.41;;;12.88;nan
7105;BME280;3594;42.152;24.714;2024-03-25T10:26:30;60830.88;;;12.66;nan
7105;BME280;3594;42.152;24.714;2024-03-25T10:31:26;61037.91;;;12.61;nan
7105;BME280;3594;42.152;24.714;2024-03-25T10:33:52;60897.84;;;12.60;nan
7105;BME280;3594;42.152;24.714;2024-03-25T10:36:18;60944.97;;;12.49;nan
7105;BME280;3594;42.152;24.714;2024-03-25T10:38:45;60976.25;;;12.50;nan
7105;BME280;3594;42.152;24.714;2024-03-25T10:41:17;60881.31;;;12.84;nan
7105;BME280;3594;42.152;24.714;2024-03-25T10:43:45;60837.34;;;12.91;nan
7105;BME280;3594;42.152;24.714;2024-03-25T10:46:12;60976.19;;;12.79;nan
7105;BME280;3594;42.152;24.714;2024-03-25T10:48:44;60810.50;;;12.36;nan
7105;BME280;3594;42.152;24.714;2024-03-25T10:51:13;60841.75;;;12.62;nan
7105;BME280;3594;42.152;24.714;2024-03-25T10:53:41;60969.13;;;12.75;nan
7105;BME280;3594;42.152;24.714;2024-03-25T10:56:06;60959.84;;;12.65;nan
7105;BME280;3594;42.152;24.714;2024-03-25T10:58:33;60906.50;;;12.74;nan
7105;BME280;3594;42.152;24.714;2024-03-25T11:00:59;61082.06;;;12.87;nan
7105;BME280;3594;42.152;24.714;2024-03-25T11:03:26;61055.03;;;12.58;nan
7105;BME280;3594;42.152;24.714;2024-03-25T11:05:51;60941.94;;;12.65;nan
7105;BME280;3594;42.152;24.714;2024-03-25T11:08:17;60962.94;;;12.45;nan
7105;BME280;3594;42.152;24.714;2024-03-25T11:10:44;61009.78;;;12.31;nan
7105;BME280;3594;42.152;24.714;2024-03-25T11:13:14;61028.63;;;12.51;nan
7105;BME280;3594;42.152;24.714;2024-03-25T11:15:43;60976.47;;;12.57;nan
7105;BME280;3594;42.152;24.714;2024-03-25T11:18:16;60963.56;;;12.87;nan
7105;BME280;3594;42.152;24.714;2024-03-25T11:20:43;61008.91;;;13.04;nan
7105;BME280;3594;42.152;24.714;2024-03-25T11:23:13;60986.25;;;13.18;nan
7105;BME280;3594;42.152;24.714;2024-03-25T11:25:39;61035.06;;;13.09;nan
7105;BME280;3594;42.152;24.714;2024-03-25T11:28:06;61036.81;;;13.06;nan
7105;BME280;3594;42.152;24.714;2024-03-25T11:30:32;60981.13;;;13.39;nan
7105;BME280;3594;42.152;24.714;2024-03-25T11:33:00;61038.31;;;13.26;nan
7105;BME280;3594;42.152;24.714;2024-03-25T11:35:27;60922.50;;;13.33;nan
7105;BME280;3594;42.152;24.714;2024-03-25T11:37:53;60928.44;;;13.15;nan
7105;BME280;3594;42.152;24.714;2024-03-25T11:40:19;60873.22;;;13.11;nan
7105;BME280;3594;42.152;24.714;2024-03-25T11:42:45;61026.25;;;13.08;nan
7105;BME280;3594;42.152;24.714;2024-03-25T11:45:15;60992.59;;;13.36;nan
7105;BME280;3594;42.152;24.714;2024-03-25T11:47:42;61063.94;;;13.72;nan
7105;BME280;3594;42.152;24.714;2024-03-25T11:50:10;61211.19;;;13.91;nan
7105;BME280;3594;42.152;24.714;2024-03-25T11:52:37;61080.31;;;13.87;nan
7105;BME280;3594;42.152;24.714;2024-03-25T11:55:03;61095.09;;;13.91;nan
7105;BME280;3594;42.152;24.714;2024-03-25T11:57:29;60999.88;;;13.84;nan
7105;BME280;3594;42.152;24.714;2024-03-25T11:59:54;61038.88;;;13.47;nan
7105;BME280;3594;42.152;24.714;2024-03-25T12:02:20;61079.47;;;13.17;nan
7105;BME280;3594;42.152;24.714;2024-03-25T12:04:45;60930.03;;;13.25;nan
7105;BME280;3594;42.152;24.714;2024-03-25T12:07:14;61011.13;;;13.11;nan
7105;BME280;3594;42.152;24.714;2024-03-25T12:09:40;61048.38;;;12.68;nan
7105;BME280;3594;42.152;24.714;2024-03-25T12:12:25;60980.19;;;12.78;nan
7105;BME280;3594;42.152;24.714;2024-03-25T12:14:53;60956.16;;;12.64;nan
7105;BME280;3594;42.152;24.714;2024-03-25T12:17:21;61036.94;;;12.47;nan
7105;BME280;3594;42.152;24.714;2024-03-25T12:20:04;60783.91;;;12.26;nan
7105;BME280;3594;42.152;24.714;2024-03-25T12:22:31;60869.25;;;12.04;nan
7105;BME280;3594;42.152;24.714;2024-03-25T12:24:58;60927.03;;;11.78;nan
7105;BME280;3594;42.152;24.714;2024-03-25T12:27:24;60915.59;;;11.51;nan
7105;BME280;3594;42.152;24.714;2024-03-25T12:30:00;60902.03;;;11.74;nan
7105;BME280;3594;42.152;24.714;2024-03-25T12:32:39;60925.31;;;12.27;nan
7105;BME280;3594;42.152;24.714;2024-03-25T12:35:16;60952.47;;;12.63;nan
7105;BME280;3594;42.152;24.714;2024-03-25T12:37:46;60946.44;;;12.90;nan
7105;BME280;3594;42.152;24.714;2024-03-25T12:40:24;60991.84;;;13.03;nan
7105;BME280;3594;42.152;24.714;2024-03-25T12:42:52;60918.25;;;13.31;nan
7105;BME280;3594;42.152;24.714;2024-03-25T12:45:18;60961.94;;;13.01;nan
7105;BME280;3594;42.152;24.714;2024-03-25T12:47:44;60980.31;;;13.15;nan
7105;BME280;3594;42.152;24.714;2024-03-25T12:50:10;60859.66;;;12.83;nan
7105;BME280;3594;42.152;24.714;2024-03-25T12:52:36;60887.22;;;12.46;nan
7105;BME280;3594;42.152;24.714;2024-03-25T12:55:02;60985.69;;;12.47;nan
7105;BME280;3594;42.152;24.714;2024-03-25T12:57:29;60849.91;;;12.88;nan
7105;BME280;3594;42.152;24.714;2024-03-25T12:59:55;60978.50;;;12.77;nan
7105;BME280;3594;42.152;24.714;2024-03-25T13:02:21;61003.25;;;12.53;nan
7105;BME280;3594;42.152;24.714;2024-03-25T13:04:46;60933.16;;;12.38;nan
7105;BME280;3594;42.152;24.714;2024-03-25T13:07:12;60916.94;;;12.35;nan
7105;BME280;3594;42.152;24.714;2024-03-25T13:09:38;60890.66;;;12.44;nan
7105;BME280;3594;42.152;24.714;2024-03-25T13:12:04;60982.47;;;12.55;nan
7105;BME280;3594;42.152;24.714;2024-03-25T13:14:29;60943.13;;;12.61;nan
7105;BME280;3594;42.152;24.714;2024-03-25T13:16:55;60844.31;;;11.75;nan
7105;BME280;3594;42.152;24.714;2024-03-25T13:19:21;60862.84;;;11.45;nan
7105;BME280;3594;42.152;24.714;2024-03-25T13:21:46;60799.72;;;11.23;nan
7105;BME280;3594;42.152;24.714;2024-03-25T13:24:13;60830.44;;;11.44;nan
7105;BME280;3594;42.152;24.714;2024-03-25T13:26:38;60875.94;;;11.69;nan
7105;BME280;3594;42.152;24.714;2024-03-25T13:29:04;60704.84;;;11.46;nan
7105;BME280;3594;42.152;24.714;2024-03-25T13:31:30;60865.06;;;11.47;nan
7105;BME280;3594;42.152;24.714;2024-03-25T13:33:55;60835.34;;;11.12;nan
7105;BME280;3594;42.152;24.714;2024-03-25T13:36:21;60998.25;;;11.25;nan
7105;BME280;3594;42.152;24.714;2024-03-25T13:38:46;60826.56;;;11.36;nan